Time;durP1;ratioP1;P1;durP2;ratioP2;P2;SDS_P1;SDS_P2;PMS_P1;PMS_P2;Temp;Humidity;BMP_temperature;BMP_pressure;BME280_temperature;BME280_humidity;BME280_pressure;Samples;Min_cycle;Max_cycle;Signal;HPM_P1;HPM_P2
2024/01/15 00:01:17;;;;;;;27.40;12.07;;;1.50;99.90;;;;;;5092859;28;20392;-74
2024/01/15 00:03:42;;;;;;;16.53;10.77;;;1.50;99.90;;;;;;5092502;28;20664;-74
2024/01/15 00:06:08;;;;;;;21.60;11.53;;;1.50;99.90;;;;;;5092396;28;20176;-73
2024/01/15 00:08:33;;;;;;;22.40;13.80;;;1.50;99.90;;;;;;5074382;28;20283;-73
2024/01/15 00:10:59;;;;;;;31.20;12.87;;;1.50;99.90;;;;;;5092804;28;20165;-74
2024/01/15 00:13:24;;;;;;;29.17;11.80;;;1.50;99.90;;;;;;5092581;28;20164;-74
2024/01/15 00:15:50;;;;;;;18.40;10.90;;;1.50;99.90;;;;;;5092455;28;20185;-74
2024/01/15 00:18:15;;;;;;;23.10;10.50;;;1.40;99.90;;;;;;5092563;28;20165;-74
2024/01/15 00:20:41;;;;;;;20.60;11.17;;;1.50;99.90;;;;;;5092550;28;20252;-74
2024/01/15 00:23:06;;;;;;;27.87;11.97;;;1.50;99.90;;;;;;5092506;28;20196;-73
2024/01/15 00:25:32;;;;;;;18.87;10.60;;;1.50;99.90;;;;;;5092181;28;20732;-74
2024/01/15 00:27:57;;;;;;;32.27;11.37;;;1.60;99.90;;;;;;5074027;28;20264;-74
2024/01/15 00:30:23;;;;;;;26.47;11.60;;;1.60;99.90;;;;;;5092435;28;20173;-73
2024/01/15 00:32:49;;;;;;;21.70;10.27;;;1.60;99.90;;;;;;5074244;28;20261;-74
2024/01/15 00:35:14;;;;;;;27.33;10.57;;;1.60;99.90;;;;;;5091981;28;20713;-73
2024/01/15 00:37:40;;;;;;;21.43;12.30;;;1.50;99.90;;;;;;5092025;28;20915;-73
2024/01/15 00:40:07;;;;;;;24.97;11.90;;;1.50;99.90;;;;;;5092263;28;20665;-74
2024/01/15 00:42:34;;;;;;;23.43;10.77;;;1.50;99.90;;;;;;5092204;28;20276;-74
2024/01/15 00:44:59;;;;;;;20.13;11.83;;;1.60;99.90;;;;;;5091982;28;20424;-73
2024/01/15 00:47:25;;;;;;;21.27;11.50;;;1.60;99.90;;;;;;5091951;28;20909;-73
2024/01/15 00:49:50;;;;;;;24.80;12.87;;;1.70;99.90;;;;;;5092136;28;20201;-73
2024/01/15 00:52:16;;;;;;;29.67;11.97;;;1.70;99.90;;;;;;5091723;28;20569;-72
2024/01/15 00:54:41;;;;;;;25.90;11.73;;;1.70;99.90;;;;;;5091260;28;20204;-73
2024/01/15 00:57:07;;;;;;;23.90;10.90;;;1.70;99.90;;;;;;5092077;28;20164;-72
2024/01/15 00:59:32;;;;;;;29.97;13.07;;;1.70;99.90;;;;;;5092158;28;20250;-73
2024/01/15 01:01:58;;;;;;;34.07;12.57;;;1.70;99.90;;;;;;5091796;28;20172;-73
2024/01/15 01:04:23;;;;;;;27.90;12.00;;;1.70;99.90;;;;;;5091669;28;20194;-73
2024/01/15 01:06:49;;;;;;;31.20;11.57;;;1.80;99.90;;;;;;5092025;28;20173;-73
2024/01/15 01:09:15;;;;;;;26.27;12.63;;;1.90;99.90;;;;;;5091854;28;20856;-74
2024/01/15 01:11:40;;;;;;;21.77;11.63;;;1.80;99.90;;;;;;5091952;28;20164;-73
2024/01/15 01:14:06;;;;;;;20.67;12.37;;;1.90;99.90;;;;;;5091659;28;20221;-73
2024/01/15 01:16:38;;;;;;;34.27;12.73;;;2.00;99.90;;;;;;5091675;28;20166;-74
2024/01/15 01:19:04;;;;;;;28.53;13.47;;;1.90;99.90;;;;;;5091681;28;20172;-74
2024/01/15 01:21:30;;;;;;;32.33;14.70;;;1.80;99.90;;;;;;5091763;28;20503;-73
2024/01/15 01:23:55;;;;;;;29.83;14.73;;;1.70;99.90;;;;;;5091246;28;20506;-74
2024/01/15 01:26:21;;;;;;;32.00;14.70;;;1.60;99.90;;;;;;5091703;28;20174;-73
2024/01/15 01:28:46;;;;;;;31.10;15.30;;;1.70;99.90;;;;;;5091660;28;20659;-73
2024/01/15 01:31:12;;;;;;;25.60;13.77;;;1.70;99.90;;;;;;5091722;28;20178;-73
2024/01/15 01:33:40;;;;;;;39.53;16.13;;;1.70;99.90;;;;;;5091571;28;20220;-73
2024/01/15 01:36:09;;;;;;;26.90;11.77;;;1.70;99.90;;;;;;5091374;28;20549;-73
2024/01/15 01:38:36;;;;;;;29.13;13.77;;;1.70;99.90;;;;;;5091562;28;20404;-75
2024/01/15 01:41:01;;;;;;;28.93;16.57;;;1.60;99.90;;;;;;5091318;28;20890;-75
2024/01/15 01:43:27;;;;;;;26.37;12.87;;;1.60;99.90;;;;;;5091614;28;20410;-75
2024/01/15 01:45:54;;;;;;;28.77;11.07;;;1.60;99.90;;;;;;5091266;28;20637;-75
2024/01/15 01:48:20;;;;;;;26.83;13.30;;;1.60;99.90;;;;;;5091507;28;20615;-75
2024/01/15 01:50:46;;;;;;;28.37;12.80;;;1.60;99.90;;;;;;5091480;28;20491;-74
2024/01/15 01:53:11;;;;;;;20.47;9.83;;;1.60;99.90;;;;;;5091201;28;20273;-75
2024/01/15 01:55:38;;;;;;;26.60;12.10;;;1.70;99.90;;;;;;5091285;28;20192;-75
2024/01/15 01:58:04;;;;;;;25.43;12.33;;;1.60;99.90;;;;;;5091485;28;20215;-74
2024/01/15 02:00:32;;;;;;;23.30;11.07;;;1.70;99.90;;;;;;5091398;28;20400;-74
2024/01/15 02:02:57;;;;;;;38.93;13.47;;;1.60;99.90;;;;;;5091442;28;20462;-75
2024/01/15 02:05:23;;;;;;;27.60;12.40;;;1.60;99.90;;;;;;5072862;28;20942;-75
2024/01/15 02:07:49;;;;;;;25.87;14.10;;;1.60;99.90;;;;;;5076602;28;20174;-74
2024/01/15 02:10:14;;;;;;;20.53;12.47;;;1.60;99.90;;;;;;5094723;28;20207;-74
2024/01/15 02:12:40;;;;;;;27.07;11.33;;;1.60;99.90;;;;;;5094751;28;20272;-74
2024/01/15 02:15:06;;;;;;;26.93;13.67;;;1.60;99.90;;;;;;5094700;28;20213;-75
2024/01/15 02:17:31;;;;;;;31.03;14.13;;;1.60;99.90;;;;;;5094828;28;20168;-74
2024/01/15 02:19:57;;;;;;;31.37;13.47;;;1.60;99.90;;;;;;5095012;28;20415;-74
2024/01/15 02:22:22;;;;;;;26.97;12.17;;;1.70;99.90;;;;;;5094666;28;20673;-74
2024/01/15 02:24:48;;;;;;;29.40;13.73;;;1.60;99.90;;;;;;5076319;28;20255;-74
2024/01/15 02:27:14;;;;;;;29.40;14.83;;;1.70;99.90;;;;;;5094735;28;20173;-74
2024/01/15 02:29:40;;;;;;;30.27;13.90;;;1.70;99.90;;;;;;5094553;28;20224;-74
2024/01/15 02:32:06;;;;;;;25.37;12.30;;;1.80;99.90;;;;;;5094521;28;20252;-74
2024/01/15 02:34:32;;;;;;;29.97;15.57;;;1.80;99.90;;;;;;5094181;28;20439;-74
2024/01/15 02:36:58;;;;;;;26.87;13.00;;;1.80;99.90;;;;;;5094217;28;20403;-74
2024/01/15 02:39:23;;;;;;;28.93;13.37;;;1.80;99.90;;;;;;5094167;28;20495;-74
2024/01/15 02:41:50;;;;;;;26.10;12.90;;;1.70;99.90;;;;;;5094455;28;20276;-74
2024/01/15 02:44:15;;;;;;;26.23;12.03;;;1.70;99.90;;;;;;5075875;28;20193;-74
2024/01/15 02:46:41;;;;;;;24.13;12.57;;;1.70;99.90;;;;;;5094356;28;20431;-74
2024/01/15 02:49:06;;;;;;;30.77;12.57;;;1.70;99.90;;;;;;5094309;28;20201;-74
2024/01/15 02:51:32;;;;;;;31.17;14.17;;;1.70;99.90;;;;;;5094225;28;20185;-74
2024/01/15 02:53:57;;;;;;;26.27;12.20;;;1.60;99.90;;;;;;5094102;28;20216;-74
2024/01/15 02:56:23;;;;;;;30.00;14.97;;;1.70;99.90;;;;;;5094254;28;20687;-74
2024/01/15 02:58:48;;;;;;;39.60;13.17;;;1.60;99.90;;;;;;5094189;28;20166;-75
2024/01/15 03:01:14;;;;;;;26.23;12.73;;;1.70;99.90;;;;;;5076048;28;20174;-74
2024/01/15 03:03:40;;;;;;;29.87;14.83;;;1.60;99.90;;;;;;5075852;28;20658;-74
2024/01/15 03:06:06;;;;;;;24.37;12.50;;;1.50;99.90;;;;;;5093772;28;20180;-74
2024/01/15 03:08:31;;;;;;;27.37;14.63;;;1.40;99.90;;;;;;5093933;28;20443;-73
2024/01/15 03:10:57;;;;;;;32.33;12.10;;;1.40;99.90;;;;;;5075831;28;20541;-75
2024/01/15 03:13:22;;;;;;;27.87;12.43;;;1.40;99.90;;;;;;5093820;28;20169;-75
2024/01/15 03:15:48;;;;;;;28.20;13.90;;;1.40;99.90;;;;;;5093738;28;20211;-75
2024/01/15 03:18:13;;;;;;;24.40;12.47;;;1.50;99.90;;;;;;5075305;28;20169;-75
2024/01/15 03:20:39;;;;;;;26.63;12.73;;;1.40;99.90;;;;;;5075656;28;20253;-74
2024/01/15 03:23:04;;;;;;;25.83;12.07;;;1.40;99.90;;;;;;5075250;28;20166;-75
2024/01/15 03:25:30;;;;;;;27.80;14.03;;;1.50;99.90;;;;;;5093260;28;20182;-75
2024/01/15 03:27:55;;;;;;;27.50;14.83;;;1.50;99.90;;;;;;5093503;28;20173;-75
2024/01/15 03:30:21;;;;;;;28.20;12.43;;;1.50;99.90;;;;;;5075409;28;20207;-75
2024/01/15 03:32:47;;;;;;;21.73;11.30;;;1.50;99.90;;;;;;5075368;28;20189;-74
2024/01/15 03:35:12;;;;;;;19.90;12.70;;;1.60;99.90;;;;;;5093107;28;20658;-74
2024/01/15 03:37:38;;;;;;;26.47;12.90;;;1.50;99.90;;;;;;5075320;28;20494;-74
2024/01/15 03:40:04;;;;;;;33.87;13.87;;;1.60;99.90;;;;;;5093474;28;20640;-75
2024/01/15 03:42:30;;;;;;;26.93;13.40;;;1.70;99.90;;;;;;5093349;28;20177;-74
2024/01/15 03:44:55;;;;;;;29.67;12.33;;;1.70;99.90;;;;;;5093065;28;20428;-74
2024/01/15 03:47:21;;;;;;;29.10;14.70;;;1.70;99.90;;;;;;5093246;28;20177;-74
2024/01/15 03:49:46;;;;;;;27.93;13.30;;;1.70;99.90;;;;;;5093229;28;20679;-74
2024/01/15 03:52:12;;;;;;;24.73;13.77;;;1.70;99.90;;;;;;5074797;28;20197;-74
2024/01/15 03:54:37;;;;;;;31.47;14.87;;;1.60;99.90;;;;;;5092934;28;20201;-74
2024/01/15 03:57:03;;;;;;;36.83;13.47;;;1.70;99.90;;;;;;5092928;28;20570;-74
2024/01/15 03:59:29;;;;;;;34.93;15.07;;;1.70;99.90;;;;;;5093104;28;20189;-74
2024/01/15 04:01:54;;;;;;;23.60;12.10;;;1.70;99.90;;;;;;5074781;28;20268;-73
2024/01/15 04:04:20;;;;;;;30.07;13.80;;;1.60;99.90;;;;;;5092704;28;20186;-75
2024/01/15 04:06:45;;;;;;;36.93;13.50;;;1.60;99.90;;;;;;5092760;28;20169;-74
2024/01/15 04:09:13;;;;;;;25.50;13.00;;;1.60;99.90;;;;;;5074418;28;20328;-74
2024/01/15 04:11:38;;;;;;;27.97;12.60;;;1.50;99.90;;;;;;5092747;28;20532;-73
2024/01/15 04:14:04;;;;;;;23.70;11.23;;;1.50;99.90;;;;;;5092466;28;20423;-74
2024/01/15 04:16:30;;;;;;;24.77;11.87;;;1.50;99.90;;;;;;5074478;28;20165;-73
2024/01/15 04:18:55;;;;;;;23.60;13.80;;;1.50;99.90;;;;;;5092633;28;20165;-73
2024/01/15 04:21:20;;;;;;;25.47;11.87;;;1.50;99.90;;;;;;5092544;28;20668;-73
2024/01/15 04:23:46;;;;;;;24.43;10.70;;;1.50;99.90;;;;;;5092539;28;20194;-73
2024/01/15 04:26:12;;;;;;;24.70;11.47;;;1.50;99.90;;;;;;5073859;28;20177;-73
2024/01/15 04:28:37;;;;;;;21.47;12.27;;;1.40;99.90;;;;;;5091609;28;20707;-74
2024/01/15 04:31:03;;;;;;;24.50;12.37;;;1.40;99.90;;;;;;5073766;28;20170;-73
2024/01/15 04:33:28;;;;;;;20.47;12.30;;;1.40;99.90;;;;;;5091482;28;20542;-74
2024/01/15 04:35:54;;;;;;;25.93;11.47;;;1.40;99.90;;;;;;5092155;28;20198;-74
2024/01/15 04:38:19;;;;;;;21.43;10.10;;;1.30;99.90;;;;;;5092281;28;20633;-74
2024/01/15 04:40:45;;;;;;;22.30;9.73;;;1.40;99.90;;;;;;5092233;28;20264;-73
2024/01/15 04:43:10;;;;;;;24.03;11.10;;;1.40;99.90;;;;;;5092162;28;20253;-73
2024/01/15 04:45:36;;;;;;;19.33;9.53;;;1.40;99.90;;;;;;5091991;28;20201;-73
2024/01/15 04:48:01;;;;;;;25.10;10.87;;;1.40;99.90;;;;;;5092195;28;20169;-73
2024/01/15 04:50:27;;;;;;;24.20;9.53;;;1.50;99.90;;;;;;5092077;28;20197;-74
2024/01/15 04:52:52;;;;;;;19.07;10.83;;;1.50;99.90;;;;;;5092213;28;20184;-73
2024/01/15 04:55:18;;;;;;;19.77;11.80;;;1.60;99.90;;;;;;5091681;28;20196;-74
2024/01/15 04:57:43;;;;;;;19.80;10.30;;;1.70;99.90;;;;;;5092033;28;20161;-74
2024/01/15 05:00:10;;;;;;;24.43;11.30;;;1.70;99.90;;;;;;5092039;28;20232;-73
2024/01/15 05:02:35;;;;;;;20.03;10.77;;;1.70;99.90;;;;;;5091993;28;20166;-73
2024/01/15 05:05:01;;;;;;;22.80;10.97;;;1.70;99.90;;;;;;5091743;28;20514;-73
2024/01/15 05:07:26;;;;;;;30.03;10.73;;;1.60;99.90;;;;;;5091936;28;20166;-73
2024/01/15 05:09:52;;;;;;;15.73;9.47;;;1.60;99.90;;;;;;5091740;28;20201;-74
2024/01/15 05:12:17;;;;;;;19.97;11.20;;;1.60;99.90;;;;;;5091956;28;20169;-73
2024/01/15 05:14:43;;;;;;;16.77;9.70;;;1.60;99.90;;;;;;5091726;28;20707;-73
2024/01/15 05:17:08;;;;;;;21.77;10.63;;;1.60;99.90;;;;;;5091848;28;20215;-74
2024/01/15 05:19:34;;;;;;;16.10;10.40;;;1.50;99.90;;;;;;5091836;28;20170;-74
2024/01/15 05:21:59;;;;;;;14.83;8.33;;;1.50;99.90;;;;;;5091982;28;20166;-73
2024/01/15 05:24:26;;;;;;;19.63;9.33;;;1.70;99.90;;;;;;5091281;28;20193;-74
2024/01/15 05:26:52;;;;;;;17.77;7.87;;;1.70;99.90;;;;;;5091411;28;20246;-73
2024/01/15 05:29:18;;;;;;;15.60;9.07;;;1.70;99.90;;;;;;5091613;28;20530;-73
2024/01/15 05:31:43;;;;;;;23.23;12.93;;;1.60;99.90;;;;;;5091730;28;20532;-73
2024/01/15 05:34:09;;;;;;;35.40;13.20;;;1.60;99.90;;;;;;5091305;28;20502;-73
2024/01/15 05:36:34;;;;;;;13.57;8.97;;;1.70;99.90;;;;;;5091635;28;20638;-73
2024/01/15 05:39:00;;;;;;;14.13;8.67;;;1.60;99.90;;;;;;5091672;28;20170;-73
2024/01/15 05:41:26;;;;;;;20.93;9.03;;;1.70;99.90;;;;;;5094681;28;20192;-73
2024/01/15 05:43:52;;;;;;;14.37;7.97;;;1.70;99.90;;;;;;5095526;28;20193;-73
2024/01/15 05:46:17;;;;;;;19.30;8.20;;;1.80;99.90;;;;;;5095337;28;20809;-72
2024/01/15 05:48:43;;;;;;;17.83;6.73;;;1.70;99.90;;;;;;5095355;28;20189;-73
2024/01/15 05:51:08;;;;;;;17.10;7.30;;;1.80;99.90;;;;;;5095140;28;20196;-73
2024/01/15 05:53:34;;;;;;;14.63;8.47;;;1.90;99.90;;;;;;5094731;28;20189;-74
2024/01/15 05:56:01;;;;;;;14.97;8.73;;;1.90;99.90;;;;;;5095150;28;20230;-74
2024/01/15 05:58:26;;;;;;;15.13;9.37;;;1.90;99.90;;;;;;5095379;28;20162;-73
2024/01/15 06:00:52;;;;;;;12.50;9.23;;;1.80;99.90;;;;;;5095291;28;20407;-72
2024/01/15 06:03:17;;;;;;;19.77;10.37;;;1.80;99.90;;;;;;5095114;28;20177;-72
2024/01/15 06:05:43;;;;;;;27.67;11.30;;;1.90;99.90;;;;;;5094960;28;20236;-74
2024/01/15 06:08:09;;;;;;;15.33;9.47;;;1.90;99.90;;;;;;5095076;28;20168;-73
2024/01/15 06:10:34;;;;;;;16.73;9.53;;;1.90;99.90;;;;;;5095261;28;20752;-73
2024/01/15 06:13:00;;;;;;;16.63;9.43;;;2.00;99.90;;;;;;5076929;28;20615;-74
2024/01/15 06:15:25;;;;;;;15.30;9.90;;;1.90;99.90;;;;;;5094786;28;20213;-74
2024/01/15 06:17:51;;;;;;;22.83;10.10;;;1.90;99.90;;;;;;5094922;28;20256;-73
2024/01/15 06:20:16;;;;;;;17.97;9.93;;;1.90;99.90;;;;;;5094950;28;20245;-73
2024/01/15 06:22:42;;;;;;;19.13;11.17;;;1.90;99.90;;;;;;5094967;28;20834;-74
2024/01/15 06:25:08;;;;;;;19.70;11.13;;;1.90;99.90;;;;;;5076742;28;20189;-74
2024/01/15 06:27:34;;;;;;;18.60;11.70;;;1.90;99.90;;;;;;5094815;28;20528;-74
2024/01/15 06:29:59;;;;;;;20.17;11.37;;;2.00;99.90;;;;;;5076584;28;20459;-73
2024/01/15 06:32:25;;;;;;;21.30;11.83;;;2.00;99.90;;;;;;5094652;28;20299;-73
2024/01/15 06:34:50;;;;;;;18.70;11.07;;;2.00;99.90;;;;;;5094532;28;20830;-74
2024/01/15 06:37:16;;;;;;;31.83;12.03;;;2.00;99.90;;;;;;5094357;28;20161;-72
2024/01/15 06:39:41;;;;;;;17.33;9.10;;;1.90;99.90;;;;;;5094605;28;20299;-74
2024/01/15 06:42:07;;;;;;;15.80;10.20;;;2.00;99.90;;;;;;5094562;28;20161;-73
2024/01/15 06:44:32;;;;;;;21.70;10.07;;;2.00;99.90;;;;;;5094275;28;20284;-73
2024/01/15 06:47:02;;;;;;;20.30;10.07;;;1.90;99.90;;;;;;5094369;28;20172;-73
2024/01/15 06:49:28;;;;;;;18.67;12.03;;;1.90;99.90;;;;;;5094303;28;20182;-73
2024/01/15 06:51:54;;;;;;;21.40;11.20;;;1.90;99.90;;;;;;5093290;28;20900;-72
2024/01/15 06:54:20;;;;;;;15.83;9.23;;;1.90;99.90;;;;;;5094015;28;20505;-73
2024/01/15 06:56:45;;;;;;;23.93;12.37;;;1.80;99.90;;;;;;5094229;28;20164;-73
2024/01/15 06:59:11;;;;;;;15.90;9.43;;;1.90;99.90;;;;;;5094270;28;20461;-73
2024/01/15 07:01:36;;;;;;;21.77;10.40;;;1.90;99.90;;;;;;5094021;28;20580;-73
2024/01/15 07:04:03;;;;;;;19.73;9.57;;;1.90;99.90;;;;;;5093765;28;20185;-73
2024/01/15 07:06:30;;;;;;;22.13;9.10;;;1.90;99.90;;;;;;5093888;28;20164;-73
2024/01/15 07:08:56;;;;;;;17.20;11.77;;;1.90;99.90;;;;;;5075849;28;20455;-74
2024/01/15 07:11:21;;;;;;;18.00;11.90;;;1.90;99.90;;;;;;5093999;28;20502;-74
2024/01/15 07:13:47;;;;;;;20.27;11.73;;;1.90;99.90;;;;;;5075705;28;20185;-73
2024/01/15 07:16:12;;;;;;;15.33;10.87;;;1.90;99.90;;;;;;5093487;28;20161;-74
2024/01/15 07:18:38;;;;;;;21.97;10.97;;;1.90;99.90;;;;;;5075710;28;20178;-73
2024/01/15 07:21:04;;;;;;;16.60;9.87;;;1.90;99.90;;;;;;5093778;28;20170;-73
2024/01/15 07:23:31;;;;;;;21.77;11.83;;;2.00;99.90;;;;;;5093586;28;20184;-72
2024/01/15 07:25:57;;;;;;;16.60;9.20;;;2.00;99.90;;;;;;5093462;28;20404;-73
2024/01/15 07:28:22;;;;;;;19.27;10.50;;;2.10;99.90;;;;;;5093520;28;20450;-72
2024/01/15 07:30:48;;;;;;;23.00;8.60;;;2.10;99.90;;;;;;5093644;28;20538;-72
2024/01/15 07:33:14;;;;;;;20.73;9.50;;;2.00;99.90;;;;;;5093516;28;20166;-72
2024/01/15 07:35:39;;;;;;;18.73;11.50;;;2.00;99.90;;;;;;5093240;28;20162;-72
2024/01/15 07:38:05;;;;;;;19.97;11.17;;;1.90;99.90;;;;;;5093344;28;20306;-72
2024/01/15 07:40:30;;;;;;;18.70;11.30;;;2.00;99.90;;;;;;5093316;28;20644;-72
2024/01/15 07:42:56;;;;;;;21.93;11.83;;;2.00;99.90;;;;;;5093353;28;20547;-73
2024/01/15 07:45:21;;;;;;;21.43;10.63;;;2.00;99.90;;;;;;5092905;28;20193;-72
2024/01/15 07:47:47;;;;;;;23.77;11.83;;;2.10;99.90;;;;;;5093240;28;20165;-73
2024/01/15 07:50:12;;;;;;;26.53;13.17;;;2.10;99.90;;;;;;5093140;28;20191;-73
2024/01/15 07:52:40;;;;;;;24.10;12.67;;;2.20;99.90;;;;;;5092977;28;20189;-74
2024/01/15 07:55:05;;;;;;;22.27;12.43;;;2.20;99.90;;;;;;5092779;28;20601;-74
2024/01/15 07:57:31;;;;;;;29.53;13.53;;;2.20;99.90;;;;;;5074846;28;20435;-72
2024/01/15 07:59:57;;;;;;;25.77;11.73;;;2.20;99.90;;;;;;5092948;28;20176;-72
2024/01/15 08:02:22;;;;;;;22.70;12.43;;;2.30;99.90;;;;;;5092707;28;20196;-70
2024/01/15 08:04:48;;;;;;;27.73;12.50;;;2.30;99.90;;;;;;5074526;28;20276;-69
2024/01/15 08:07:13;;;;;;;21.07;13.63;;;2.40;99.90;;;;;;5092866;28;20176;-69
2024/01/15 08:09:39;;;;;;;29.80;13.37;;;2.50;99.90;;;;;;5092714;28;20193;-69
2024/01/15 08:12:06;;;;;;;22.93;12.40;;;2.50;99.90;;;;;;5092762;28;20276;-69
2024/01/15 08:14:31;;;;;;;21.20;12.03;;;2.60;99.90;;;;;;5092486;28;20178;-68
2024/01/15 08:16:57;;;;;;;25.23;13.27;;;2.60;99.90;;;;;;5092979;28;20419;-68
2024/01/15 08:19:22;;;;;;;23.07;13.57;;;2.70;99.90;;;;;;5092649;28;20165;-68
2024/01/15 08:21:48;;;;;;;24.20;11.17;;;2.60;99.90;;;;;;5074375;28;20178;-68
2024/01/15 08:24:15;;;;;;;21.80;11.77;;;2.70;99.90;;;;;;5092311;28;20268;-70
2024/01/15 08:26:40;;;;;;;24.27;12.17;;;2.80;99.90;;;;;;5092304;28;20579;-69
2024/01/15 08:29:06;;;;;;;24.37;13.33;;;2.90;99.90;;;;;;5092430;28;20534;-69
2024/01/15 08:31:31;;;;;;;22.17;11.93;;;3.00;99.90;;;;;;5092534;28;20176;-70
2024/01/15 08:33:57;;;;;;;23.80;12.50;;;3.00;99.90;;;;;;5092431;28;20182;-70
2024/01/15 08:36:24;;;;;;;20.03;11.03;;;3.00;99.90;;;;;;5092161;28;20162;-69
2024/01/15 08:38:49;;;;;;;24.13;10.70;;;3.10;99.90;;;;;;5092271;28;20172;-69
2024/01/15 08:41:15;;;;;;;26.63;12.50;;;3.00;99.90;;;;;;5092533;28;20768;-69
2024/01/15 08:43:40;;;;;;;21.60;11.27;;;2.90;99.90;;;;;;5091984;28;20186;-69
2024/01/15 08:46:06;;;;;;;17.77;10.73;;;2.90;99.90;;;;;;5092026;28;20165;-69
2024/01/15 08:48:32;;;;;;;20.33;10.80;;;2.90;99.90;;;;;;5092098;28;20193;-69
2024/01/15 08:50:58;;;;;;;14.20;9.37;;;2.90;99.90;;;;;;5092114;28;20905;-69
2024/01/15 08:53:23;;;;;;;20.30;11.70;;;2.90;99.90;;;;;;5091851;28;20232;-69
2024/01/15 08:55:49;;;;;;;18.57;10.00;;;2.80;99.90;;;;;;5091867;28;20161;-69
2024/01/15 08:58:15;;;;;;;18.17;10.47;;;2.80;99.90;;;;;;5092130;28;20158;-69
2024/01/15 09:00:40;;;;;;;15.97;9.47;;;2.90;99.90;;;;;;5091998;28;20180;-69
2024/01/15 09:03:06;;;;;;;18.80;9.50;;;2.90;99.90;;;;;;5092048;28;20161;-69
2024/01/15 09:05:31;;;;;;;20.07;10.37;;;3.00;99.90;;;;;;5091273;28;20193;-69
2024/01/15 09:07:57;;;;;;;15.67;8.97;;;3.00;99.90;;;;;;5091900;28;20248;-69
2024/01/15 09:10:22;;;;;;;16.07;10.87;;;3.10;99.90;;;;;;5091901;28;20672;-68
2024/01/15 09:12:51;;;;;;;13.63;9.33;;;3.10;99.90;;;;;;5091831;28;20691;-68
2024/01/15 09:15:16;;;;;;;12.43;8.57;;;2.90;99.90;;;;;;5094277;28;20185;-68
2024/01/15 09:17:42;;;;;;;13.67;8.20;;;2.90;99.90;;;;;;5098543;28;20399;-68
2024/01/15 09:20:09;;;;;;;14.27;8.80;;;2.90;99.90;;;;;;5098592;28;20219;-68
2024/01/15 09:22:35;;;;;;;11.77;8.83;;;3.00;99.90;;;;;;5098554;28;20411;-69
2024/01/15 09:25:01;;;;;;;9.63;7.13;;;3.00;99.90;;;;;;5098291;28;20423;-69
2024/01/15 09:27:26;;;;;;;11.63;8.03;;;3.00;99.90;;;;;;5098389;28;20399;-70
2024/01/15 09:29:55;;;;;;;9.30;7.00;;;3.00;99.90;;;;;;5080467;28;20189;-69
2024/01/15 09:32:20;;;;;;;11.47;6.40;;;3.00;99.90;;;;;;5098469;28;20165;-69
2024/01/15 09:34:46;;;;;;;7.27;4.57;;;2.90;99.90;;;;;;5079974;28;20762;-68
2024/01/15 09:37:14;;;;;;;7.63;5.00;;;2.80;99.90;;;;;;5098382;28;20172;-70
2024/01/15 09:39:39;;;;;;;6.07;5.10;;;2.80;99.90;;;;;;5098365;28;20172;-70
2024/01/15 09:42:05;;;;;;;6.83;4.20;;;2.80;99.90;;;;;;5098366;28;20502;-70
2024/01/15 09:44:31;;;;;;;6.03;4.43;;;2.80;99.90;;;;;;5079964;28;20193;-69
2024/01/15 09:46:57;;;;;;;5.80;4.60;;;2.80;99.90;;;;;;5098157;28;20407;-69
2024/01/15 09:49:23;;;;;;;10.70;4.70;;;2.70;99.90;;;;;;5098160;28;20546;-68
2024/01/15 09:51:49;;;;;;;10.23;5.07;;;2.70;99.90;;;;;;5098173;28;20565;-69
2024/01/15 09:54:17;;;;;;;5.73;3.83;;;2.70;99.90;;;;;;5098063;28;20715;-68
2024/01/15 09:56:46;;;;;;;5.53;4.57;;;2.80;99.90;;;;;;5098196;28;20158;-69
2024/01/15 09:59:15;;;;;;;5.27;3.70;;;2.80;99.90;;;;;;5098267;28;20403;-68
2024/01/15 10:01:43;;;;;;;4.53;3.60;;;2.90;99.90;;;;;;5098362;28;20464;-68
2024/01/15 10:04:10;;;;;;;4.67;4.27;;;3.00;99.90;;;;;;5097977;28;20502;-68
2024/01/15 10:06:36;;;;;;;8.60;5.03;;;3.00;99.90;;;;;;5098180;28;20411;-69
2024/01/15 10:09:03;;;;;;;8.90;4.50;;;3.20;99.90;;;;;;5098138;28;20455;-69
2024/01/15 10:11:31;;;;;;;3.50;2.90;;;3.30;99.90;;;;;;5098161;28;20399;-68
2024/01/15 10:13:57;;;;;;;5.10;4.07;;;3.30;99.90;;;;;;5098062;28;20419;-69
2024/01/15 10:16:23;;;;;;;4.33;3.20;;;3.30;99.90;;;;;;5097905;28;20388;-69
2024/01/15 10:18:49;;;;;;;4.50;3.70;;;3.30;99.90;;;;;;5098130;28;20942;-69
2024/01/15 10:21:15;;;;;;;5.60;3.20;;;3.40;99.90;;;;;;5097774;28;20494;-69
2024/01/15 10:23:41;;;;;;;5.43;3.50;;;3.40;99.90;;;;;;5097907;28;20477;-68
2024/01/15 10:26:07;;;;;;;3.27;2.97;;;3.40;99.90;;;;;;5096717;28;20300;-69
2024/01/15 10:28:33;;;;;;;3.53;3.23;;;3.40;99.90;;;;;;5094035;28;20408;-70
2024/01/15 10:31:00;;;;;;;5.20;3.87;;;3.50;99.90;;;;;;5095373;28;20948;-69
2024/01/15 10:33:27;;;;;;;7.10;3.43;;;3.40;99.90;;;;;;5076842;28;20587;-71
2024/01/15 10:36:00;;;;;;;5.03;3.23;;;3.50;99.90;;;;;;5094633;28;20404;-70
2024/01/15 10:38:26;;;;;;;3.67;2.97;;;3.40;99.90;;;;;;5094414;28;20396;-70
2024/01/15 10:40:56;;;;;;;4.53;2.50;;;3.30;99.90;;;;;;5094672;28;20436;-70
2024/01/15 10:43:22;;;;;;;4.40;2.97;;;3.30;99.90;;;;;;5094497;28;20432;-69
2024/01/15 10:45:49;;;;;;;3.73;2.63;;;3.20;99.90;;;;;;5094266;28;20458;-69
2024/01/15 10:48:17;;;;;;;2.60;2.00;;;3.20;99.90;;;;;;5093054;28;20419;-68
2024/01/15 10:50:47;;;;;;;4.80;3.07;;;3.10;99.90;;;;;;5094352;28;20416;-68
2024/01/15 10:53:14;;;;;;;2.60;2.37;;;3.10;99.90;;;;;;5094154;28;20431;-68
2024/01/15 10:55:42;;;;;;;4.40;3.03;;;3.10;99.90;;;;;;5093447;28;20407;-69
2024/01/15 10:58:08;;;;;;;3.60;2.53;;;3.20;99.90;;;;;;5094183;28;20395;-68
2024/01/15 11:00:37;;;;;;;3.60;2.53;;;3.20;99.90;;;;;;5094209;28;20408;-68
2024/01/15 11:03:07;;;;;;;4.10;2.50;;;3.20;99.90;;;;;;5094131;28;20415;-69
2024/01/15 11:05:42;;;;;;;2.87;2.53;;;3.30;99.90;;;;;;5093834;28;20481;-69
2024/01/15 11:08:08;;;;;;;2.83;2.20;;;3.20;99.90;;;;;;5094047;28;20406;-69
2024/01/15 11:10:42;;;;;;;3.83;3.13;;;3.20;99.90;;;;;;5093969;28;21129;-68
2024/01/15 11:13:15;;;;;;;4.37;2.60;;;3.30;99.90;;;;;;5094051;28;20400;-68
2024/01/15 11:15:57;;;;;;;5.77;3.33;;;3.40;99.90;;;;;;5093772;28;20396;-68
2024/01/15 11:18:22;;;;;;;2.53;2.10;;;3.30;99.90;;;;;;5093909;28;20395;-69
2024/01/15 11:21:07;;;;;;;2.73;2.53;;;3.20;99.90;;;;;;5094042;28;20403;-70
2024/01/15 11:23:48;;;;;;;3.73;3.33;;;3.10;99.90;;;;;;5093659;28;20265;-69
2024/01/15 11:26:45;;;;;;;5.07;3.93;;;3.10;99.90;;;;;;5093404;28;20407;-69
2024/01/15 11:29:34;;;;;;;5.07;3.73;;;3.20;99.90;;;;;;5075484;28;20443;-69
2024/01/15 11:32:10;;;;;;;4.13;3.73;;;3.30;99.90;;;;;;5093658;28;20807;-69
2024/01/15 11:34:57;;;;;;;3.33;3.03;;;3.50;99.90;;;;;;5093539;28;20419;-69
2024/01/15 11:37:24;;;;;;;3.57;3.23;;;3.50;99.90;;;;;;5093475;28;20403;-69
2024/01/15 11:39:54;;;;;;;6.17;3.80;;;3.60;99.90;;;;;;5093075;28;20937;-69
2024/01/15 11:42:21;;;;;;;7.23;4.40;;;3.60;99.90;;;;;;5093420;28;20953;-68
2024/01/15 11:44:47;;;;;;;5.50;4.50;;;3.50;99.90;;;;;;5093122;28;20423;-69
2024/01/15 11:47:13;;;;;;;5.73;4.07;;;3.50;99.90;;;;;;5093255;28;20403;-68
2024/01/15 11:50:01;;;;;;;4.50;4.10;;;3.40;99.90;;;;;;5093256;28;20455;-68
2024/01/15 11:52:32;;;;;;;8.50;4.53;;;3.50;99.90;;;;;;5093098;28;20521;-68
2024/01/15 11:55:05;;;;;;;8.50;5.43;;;3.60;99.90;;;;;;5092909;28;20412;-69
2024/01/15 11:57:48;;;;;;;7.57;5.10;;;3.50;99.90;;;;;;5093238;28;20396;-69
2024/01/15 12:00:15;;;;;;;7.60;4.93;;;3.50;99.90;;;;;;5093100;28;20435;-69
2024/01/15 12:02:45;;;;;;;8.17;6.07;;;3.70;99.90;;;;;;5092992;28;20481;-69
2024/01/15 12:05:12;;;;;;;7.60;5.60;;;3.70;99.90;;;;;;5092750;28;20480;-69
2024/01/15 12:07:39;;;;;;;21.13;6.00;;;3.70;99.90;;;;;;5092984;28;20458;-69
2024/01/15 12:10:12;;;;;;;7.03;5.83;;;3.90;99.90;;;;;;5092764;28;20451;-69
2024/01/15 12:13:00;;;;;;;11.20;6.60;;;4.30;99.90;;;;;;5092839;28;20482;-69
2024/01/15 12:15:29;;;;;;;14.03;6.23;;;5.30;99.90;;;;;;5092522;28;20416;-69
2024/01/15 12:17:59;;;;;;;14.20;6.60;;;5.30;99.90;;;;;;5074553;28;20797;-69
2024/01/15 12:20:25;;;;;;;9.53;5.37;;;5.20;99.90;;;;;;5092605;28;20403;-69
2024/01/15 12:22:51;;;;;;;10.90;5.40;;;5.60;99.90;;;;;;5092673;28;20420;-68
2024/01/15 12:25:17;;;;;;;17.53;5.80;;;5.90;99.90;;;;;;5092344;28;20937;-69
2024/01/15 12:27:43;;;;;;;14.43;5.50;;;5.90;99.90;;;;;;5092497;28;20666;-69
2024/01/15 12:30:13;;;;;;;11.70;4.17;;;5.70;99.90;;;;;;5092577;28;20189;-69
2024/01/15 12:32:43;;;;;;;6.83;4.30;;;5.30;99.90;;;;;;5092520;28;20434;-68
2024/01/15 12:35:09;;;;;;;18.60;5.07;;;5.10;99.90;;;;;;5092195;28;21008;-69
2024/01/15 12:37:36;;;;;;;7.03;4.50;;;5.00;99.90;;;;;;5092431;28;20399;-69
2024/01/15 12:40:09;;;;;;;6.23;4.00;;;4.90;99.90;;;;;;5092255;28;20403;-69